sensor_id;sensor_type;location;lat;lon;timestamp;pressure;altitude;pressure_sealevel;temperature;humidity
36502;BME280;25393;46.108;3.390;2022-10-15T00:00:50;97819.78;;;16.41;96.21
36502;BME280;25393;46.108;3.390;2022-10-15T00:03:17;97818.13;;;16.40;96.93
36502;BME280;25393;46.108;3.390;2022-10-15T00:05:43;97805.78;;;16.33;97.15
36502;BME280;25393;46.108;3.390;2022-10-15T00:08:10;97797.56;;;16.34;96.65
36502;BME280;25393;46.108;3.390;2022-10-15T00:10:37;97825.88;;;16.55;96.83
36502;BME280;25393;46.108;3.390;2022-10-15T00:13:05;97801.75;;;16.75;93.17
36502;BME280;25393;46.108;3.390;2022-10-15T00:15:32;97809.44;;;17.03;91.73
36502;BME280;25393;46.108;3.390;2022-10-15T00:17:58;97777.91;;;17.05;89.59
36502;BME280;25393;46.108;3.390;2022-10-15T00:20:25;97815.34;;;17.11;91.25
36502;BME280;25393;46.108;3.390;2022-10-15T00:22:51;97777.34;;;16.96;90.67
36502;BME280;25393;46.108;3.390;2022-10-15T00:25:18;97770.84;;;16.79;92.49
36502;BME280;25393;46.108;3.390;2022-10-15T00:27:44;97794.88;;;16.92;93.27
36502;BME280;25393;46.108;3.390;2022-10-15T00:30:11;97790.22;;;16.81;93.71
36502;BME280;25393;46.108;3.390;2022-10-15T00:32:38;97763.28;;;16.69;93.56
36502;BME280;25393;46.108;3.390;2022-10-15T00:35:05;97786.47;;;16.88;92.02
36502;BME280;25393;46.108;3.390;2022-10-15T00:37:32;97768.84;;;16.68;90.86
36502;BME280;25393;46.108;3.390;2022-10-15T00:39:58;97785.41;;;16.89;90.12
36502;BME280;25393;46.108;3.390;2022-10-15T00:42:25;97771.81;;;16.91;89.76
36502;BME280;25393;46.108;3.390;2022-10-15T00:44:56;97776.31;;;16.97;88.60
36502;BME280;25393;46.108;3.390;2022-10-15T00:47:36;97761.78;;;16.80;88.83
36502;BME280;25393;46.108;3.390;2022-10-15T00:50:24;97781.34;;;16.80;89.03
36502;BME280;25393;46.108;3.390;2022-10-15T00:52:59;97772.78;;;16.65;90.73
36502;BME280;25393;46.108;3.390;2022-10-15T00:55:35;97769.00;;;16.79;88.11
36502;BME280;25393;46.108;3.390;2022-10-15T00:58:13;97777.25;;;16.78;87.88
36502;BME280;25393;46.108;3.390;2022-10-15T01:00:41;97744.63;;;16.56;88.89
36502;BME280;25393;46.108;3.390;2022-10-15T01:03:08;97766.88;;;16.57;90.25
36502;BME280;25393;46.108;3.390;2022-10-15T01:05:36;97768.84;;;16.74;88.17
36502;BME280;25393;46.108;3.390;2022-10-15T01:08:04;97755.25;;;16.69;88.51
36502;BME280;25393;46.108;3.390;2022-10-15T01:10:41;97729.03;;;16.40;89.31
36502;BME280;25393;46.108;3.390;2022-10-15T01:13:16;97748.78;;;16.45;89.04
36502;BME280;25393;46.108;3.390;2022-10-15T01:18:30;97775.53;;;16.45;90.88
36502;BME280;25393;46.108;3.390;2022-10-15T01:21:12;97768.53;;;16.44;91.18
36502;BME280;25393;46.108;3.390;2022-10-15T01:32:19;97777.94;;;15.89;96.09
36502;BME280;25393;46.108;3.390;2022-10-15T01:40:07;97771.34;;;15.98;94.90
36502;BME280;25393;46.108;3.390;2022-10-15T01:42:58;97761.59;;;16.30;92.81
36502;BME280;25393;46.108;3.390;2022-10-15T01:45:34;97760.19;;;16.21;94.04
36502;BME280;25393;46.108;3.390;2022-10-15T01:48:05;97753.19;;;16.20;93.94
36502;BME280;25393;46.108;3.390;2022-10-15T01:50:34;97740.03;;;16.25;92.49
36502;BME280;25393;46.108;3.390;2022-10-15T01:53:03;97757.09;;;16.24;93.72
36502;BME280;25393;46.108;3.390;2022-10-15T01:55:33;97756.28;;;16.17;94.54
36502;BME280;25393;46.108;3.390;2022-10-15T01:58:03;97737.81;;;16.03;95.15
36502;BME280;25393;46.108;3.390;2022-10-15T02:00:31;97746.44;;;16.05;95.68
36502;BME280;25393;46.108;3.390;2022-10-15T02:03:01;97757.16;;;15.98;96.53
36502;BME280;25393;46.108;3.390;2022-10-15T02:05:44;97754.59;;;16.23;95.01
36502;BME280;25393;46.108;3.390;2022-10-15T02:08:28;97740.53;;;16.47;93.06
36502;BME280;25393;46.108;3.390;2022-10-15T02:11:05;97721.06;;;16.27;92.94
36502;BME280;25393;46.108;3.390;2022-10-15T02:16:30;97731.94;;;16.38;93.97
36502;BME280;25393;46.108;3.390;2022-10-15T02:19:07;97727.69;;;16.24;95.44
36502;BME280;25393;46.108;3.390;2022-10-15T02:21:52;97735.50;;;16.19;96.51
36502;BME280;25393;46.108;3.390;2022-10-15T02:24:24;97731.69;;;16.40;94.32
36502;BME280;25393;46.108;3.390;2022-10-15T02:26:55;97715.88;;;16.38;92.67
36502;BME280;25393;46.108;3.390;2022-10-15T02:29:25;97722.00;;;16.52;91.53
36502;BME280;25393;46.108;3.390;2022-10-15T02:31:55;97687.34;;;16.26;92.56
36502;BME280;25393;46.108;3.390;2022-10-15T02:34:27;97711.75;;;16.42;93.24
36502;BME280;25393;46.108;3.390;2022-10-15T02:36:57;97682.84;;;16.20;93.64
36502;BME280;25393;46.108;3.390;2022-10-15T02:39:24;97688.03;;;16.15;94.42
36502;BME280;25393;46.108;3.390;2022-10-15T02:41:51;97707.53;;;16.22;94.76
36502;BME280;25393;46.108;3.390;2022-10-15T02:44:19;97703.25;;;16.52;91.37
36502;BME280;25393;46.108;3.390;2022-10-15T02:46:46;97659.59;;;16.20;92.06
36502;BME280;25393;46.108;3.390;2022-10-15T02:49:13;97661.47;;;16.20;92.84
36502;BME280;25393;46.108;3.390;2022-10-15T02:51:40;97698.28;;;16.18;93.94
36502;BME280;25393;46.108;3.390;2022-10-15T02:54:06;97663.97;;;16.15;93.31
36502;BME280;25393;46.108;3.390;2022-10-15T02:56:33;97675.47;;;16.15;94.30
36502;BME280;25393;46.108;3.390;2022-10-15T02:59:00;97697.06;;;16.14;95.11
36502;BME280;25393;46.108;3.390;2022-10-15T03:01:27;97674.94;;;16.00;94.68
36502;BME280;25393;46.108;3.390;2022-10-15T03:03:54;97659.47;;;16.02;93.76
36502;BME280;25393;46.108;3.390;2022-10-15T03:06:20;97690.53;;;16.03;94.78
36502;BME280;25393;46.108;3.390;2022-10-15T03:08:47;97657.72;;;15.83;95.31
36502;BME280;25393;46.108;3.390;2022-10-15T03:11:13;97674.28;;;15.98;94.47
36502;BME280;25393;46.108;3.390;2022-10-15T03:13:40;97663.59;;;15.98;93.41
36502;BME280;25393;46.108;3.390;2022-10-15T03:16:08;97663.63;;;15.91;92.90
36502;BME280;25393;46.108;3.390;2022-10-15T03:18:35;97672.00;;;16.15;91.18
36502;BME280;25393;46.108;3.390;2022-10-15T03:21:06;97660.94;;;15.98;92.31
36502;BME280;25393;46.108;3.390;2022-10-15T03:23:32;97671.88;;;15.90;92.54
36502;BME280;25393;46.108;3.390;2022-10-15T03:26:04;97672.69;;;15.97;93.39
36502;BME280;25393;46.108;3.390;2022-10-15T03:28:31;97651.63;;;16.14;91.18
36502;BME280;25393;46.108;3.390;2022-10-15T03:30:57;97644.69;;;16.37;88.60
36502;BME280;25393;46.108;3.390;2022-10-15T03:33:25;97654.47;;;16.19;90.32
36502;BME280;25393;46.108;3.390;2022-10-15T03:35:51;97638.88;;;16.09;90.56
36502;BME280;25393;46.108;3.390;2022-10-15T03:38:18;97641.75;;;16.14;90.40
36502;BME280;25393;46.108;3.390;2022-10-15T03:40:45;97642.31;;;16.23;90.02
36502;BME280;25393;46.108;3.390;2022-10-15T03:43:12;97647.94;;;16.15;90.23
36502;BME280;25393;46.108;3.390;2022-10-15T03:45:38;97630.00;;;16.15;89.32
36502;BME280;25393;46.108;3.390;2022-10-15T03:48:05;97652.63;;;16.19;89.78
36502;BME280;25393;46.108;3.390;2022-10-15T03:50:32;97659.41;;;16.22;89.45
36502;BME280;25393;46.108;3.390;2022-10-15T03:53:02;97624.47;;;16.17;88.17
36502;BME280;25393;46.108;3.390;2022-10-15T03:55:29;97661.03;;;16.23;89.06
36502;BME280;25393;46.108;3.390;2022-10-15T03:57:56;97638.97;;;15.96;89.94
36502;BME280;25393;46.108;3.390;2022-10-15T04:00:22;97657.59;;;16.09;90.68
36502;BME280;25393;46.108;3.390;2022-10-15T04:02:49;97652.06;;;16.11;90.65
36502;BME280;25393;46.108;3.390;2022-10-15T04:05:16;97648.44;;;15.92;91.71
36502;BME280;25393;46.108;3.390;2022-10-15T04:07:42;97639.63;;;15.85;92.63
36502;BME280;25393;46.108;3.390;2022-10-15T04:10:09;97638.38;;;15.87;91.96
36502;BME280;25393;46.108;3.390;2022-10-15T04:12:35;97643.03;;;15.98;92.71
36502;BME280;25393;46.108;3.390;2022-10-15T04:15:03;97660.63;;;16.19;92.60
36502;BME280;25393;46.108;3.390;2022-10-15T04:17:29;97647.81;;;16.34;90.19
36502;BME280;25393;46.108;3.390;2022-10-15T04:19:56;97646.19;;;16.27;90.10
36502;BME280;25393;46.108;3.390;2022-10-15T04:22:23;97644.03;;;16.48;87.34
36502;BME280;25393;46.108;3.390;2022-10-15T04:24:50;97639.19;;;16.26;88.38
36502;BME280;25393;46.108;3.390;2022-10-15T04:27:16;97630.13;;;16.33;87.68
36502;BME280;25393;46.108;3.390;2022-10-15T04:29:43;97637.41;;;16.20;87.38
36502;BME280;25393;46.108;3.390;2022-10-15T04:32:12;97634.44;;;16.34;87.16
36502;BME280;25393;46.108;3.390;2022-10-15T04:34:43;97643.63;;;16.45;85.84
36502;BME280;25393;46.108;3.390;2022-10-15T04:37:11;97639.94;;;16.46;86.01
36502;BME280;25393;46.108;3.390;2022-10-15T04:39:38;97652.97;;;16.36;87.23
36502;BME280;25393;46.108;3.390;2022-10-15T04:42:04;97626.34;;;16.10;87.50
36502;BME280;25393;46.108;3.390;2022-10-15T04:44:31;97656.84;;;16.33;86.92
36502;BME280;25393;46.108;3.390;2022-10-15T04:46:57;97657.22;;;16.43;85.87
36502;BME280;25393;46.108;3.390;2022-10-15T04:49:24;97658.50;;;16.34;86.95
36502;BME280;25393;46.108;3.390;2022-10-15T04:51:51;97659.25;;;16.48;85.55
36502;BME280;25393;46.108;3.390;2022-10-15T04:54:17;97657.25;;;16.37;86.95
36502;BME280;25393;46.108;3.390;2022-10-15T04:56:44;97665.06;;;16.38;86.16
36502;BME280;25393;46.108;3.390;2022-10-15T04:59:11;97673.25;;;16.50;85.84
36502;BME280;25393;46.108;3.390;2022-10-15T05:01:37;97666.72;;;16.33;86.39
36502;BME280;25393;46.108;3.390;2022-10-15T05:04:04;97673.88;;;16.45;85.57
36502;BME280;25393;46.108;3.390;2022-10-15T05:06:31;97682.38;;;16.29;87.39
36502;BME280;25393;46.108;3.390;2022-10-15T05:08:58;97657.41;;;16.11;87.98
36502;BME280;25393;46.108;3.390;2022-10-15T05:11:26;97689.38;;;16.30;87.55
36502;BME280;25393;46.108;3.390;2022-10-15T05:13:56;97681.97;;;16.32;87.04
36502;BME280;25393;46.108;3.390;2022-10-15T05:16:25;97683.47;;;16.15;89.20
36502;BME280;25393;46.108;3.390;2022-10-15T05:18:55;97691.25;;;16.23;89.04
36502;BME280;25393;46.108;3.390;2022-10-15T05:21:23;97689.00;;;16.27;88.97
36502;BME280;25393;46.108;3.390;2022-10-15T05:23:50;97665.16;;;16.25;87.66
36502;BME280;25393;46.108;3.390;2022-10-15T05:26:20;97684.34;;;16.54;86.09
36502;BME280;25393;46.108;3.390;2022-10-15T05:28:47;97683.13;;;16.49;86.19
36502;BME280;25393;46.108;3.390;2022-10-15T05:31:17;97677.38;;;16.46;85.35
36502;BME280;25393;46.108;3.390;2022-10-15T05:33:49;97655.25;;;16.26;86.94
36502;BME280;25393;46.108;3.390;2022-10-15T05:36:18;97663.47;;;16.31;86.52
36502;BME280;25393;46.108;3.390;2022-10-15T05:38:56;97667.56;;;16.33;86.88
36502;BME280;25393;46.108;3.390;2022-10-15T05:41:24;97674.50;;;16.41;86.18
36502;BME280;25393;46.108;3.390;2022-10-15T05:43:54;97675.91;;;16.50;86.30
36502;BME280;25393;46.108;3.390;2022-10-15T05:46:22;97668.78;;;16.37;86.43
36502;BME280;25393;46.108;3.390;2022-10-15T05:48:50;97669.78;;;16.36;86.70
36502;BME280;25393;46.108;3.390;2022-10-15T05:51:17;97666.72;;;16.33;86.67
36502;BME280;25393;46.108;3.390;2022-10-15T05:53:44;97662.44;;;16.32;87.08
36502;BME280;25393;46.108;3.390;2022-10-15T05:56:12;97650.28;;;16.29;85.57
36502;BME280;25393;46.108;3.390;2022-10-15T05:58:39;97661.03;;;16.23;87.59
36502;BME280;25393;46.108;3.390;2022-10-15T06:01:08;97663.78;;;16.47;85.66
36502;BME280;25393;46.108;3.390;2022-10-15T06:03:36;97650.19;;;16.49;85.37
36502;BME280;25393;46.108;3.390;2022-10-15T06:06:03;97663.81;;;16.41;85.83
36502;BME280;25393;46.108;3.390;2022-10-15T06:08:30;97673.69;;;16.40;86.72
36502;BME280;25393;46.108;3.390;2022-10-15T06:11:06;97667.16;;;16.30;85.73
36502;BME280;25393;46.108;3.390;2022-10-15T06:13:37;97663.94;;;16.21;87.49
36502;BME280;25393;46.108;3.390;2022-10-15T06:16:04;97658.03;;;16.06;88.34
36502;BME280;25393;46.108;3.390;2022-10-15T06:18:30;97658.75;;;16.26;86.75
36502;BME280;25393;46.108;3.390;2022-10-15T06:20:57;97665.34;;;16.24;87.20
36502;BME280;25393;46.108;3.390;2022-10-15T06:23:24;97672.94;;;16.27;87.31
36502;BME280;25393;46.108;3.390;2022-10-15T06:25:50;97666.56;;;16.28;86.50
36502;BME280;25393;46.108;3.390;2022-10-15T06:28:17;97669.19;;;16.34;84.82
36502;BME280;25393;46.108;3.390;2022-10-15T06:30:44;97659.81;;;16.25;85.96
36502;BME280;25393;46.108;3.390;2022-10-15T06:33:10;97680.25;;;16.44;85.88
36502;BME280;25393;46.108;3.390;2022-10-15T06:35:42;97679.63;;;16.11;88.31
36502;BME280;25393;46.108;3.390;2022-10-15T06:38:08;97678.66;;;15.92;89.43
36502;BME280;25393;46.108;3.390;2022-10-15T06:40:36;97689.13;;;16.01;90.26
36502;BME280;25393;46.108;3.390;2022-10-15T06:43:04;97682.03;;;16.19;89.06
36502;BME280;25393;46.108;3.390;2022-10-15T06:45:35;97680.34;;;16.31;86.77
36502;BME280;25393;46.108;3.390;2022-10-15T06:48:03;97666.97;;;16.31;87.25
36502;BME280;25393;46.108;3.390;2022-10-15T06:50:37;97682.72;;;16.46;86.26
36502;BME280;25393;46.108;3.390;2022-10-15T06:53:05;97665.97;;;16.19;88.14
36502;BME280;25393;46.108;3.390;2022-10-15T06:55:32;97686.72;;;16.30;89.37
36502;BME280;25393;46.108;3.390;2022-10-15T06:57:59;97677.84;;;16.30;90.21
36502;BME280;25393;46.108;3.390;2022-10-15T07:00:26;97688.53;;;16.36;89.65
36502;BME280;25393;46.108;3.390;2022-10-15T07:02:53;97663.31;;;16.19;90.93
36502;BME280;25393;46.108;3.390;2022-10-15T07:05:19;97679.19;;;16.52;87.10
36502;BME280;25393;46.108;3.390;2022-10-15T07:07:53;97680.16;;;16.64;85.67
36502;BME280;25393;46.108;3.390;2022-10-15T07:10:20;97652.44;;;16.59;85.41
36502;BME280;25393;46.108;3.390;2022-10-15T07:12:47;97685.25;;;16.72;85.58
36502;BME280;25393;46.108;3.390;2022-10-15T07:15:14;97668.47;;;16.59;86.50
36502;BME280;25393;46.108;3.390;2022-10-15T07:17:51;97687.13;;;16.72;87.20
36502;BME280;25393;46.108;3.390;2022-10-15T07:20:18;97687.19;;;16.90;84.06
36502;BME280;25393;46.108;3.390;2022-10-15T07:22:49;97673.03;;;16.83;83.55
36502;BME280;25393;46.108;3.390;2022-10-15T07:25:16;97675.47;;;16.91;82.67
36502;BME280;25393;46.108;3.390;2022-10-15T07:27:43;97679.50;;;17.00;81.41
36502;BME280;25393;46.108;3.390;2022-10-15T07:30:09;97679.50;;;17.00;81.69
36502;BME280;25393;46.108;3.390;2022-10-15T07:32:36;97668.03;;;16.93;82.12
36502;BME280;25393;46.108;3.390;2022-10-15T07:35:03;97696.63;;;16.99;83.90
36502;BME280;25393;46.108;3.390;2022-10-15T07:37:30;97697.75;;;16.85;84.77
36502;BME280;25393;46.108;3.390;2022-10-15T07:39:57;97702.03;;;16.86;85.85
36502;BME280;25393;46.108;3.390;2022-10-15T07:42:24;97701.94;;;16.68;87.28
36502;BME280;25393;46.108;3.390;2022-10-15T07:44:51;97709.72;;;16.76;85.94
36502;BME280;25393;46.108;3.390;2022-10-15T07:47:18;97708.22;;;16.86;84.78
36502;BME280;25393;46.108;3.390;2022-10-15T07:49:44;97706.41;;;17.12;83.77
36502;BME280;25393;46.108;3.390;2022-10-15T07:52:11;97721.91;;;17.28;83.48
36502;BME280;25393;46.108;3.390;2022-10-15T07:54:38;97695.13;;;17.28;82.08
36502;BME280;25393;46.108;3.390;2022-10-15T07:57:04;97699.13;;;17.43;81.88
36502;BME280;25393;46.108;3.390;2022-10-15T07:59:34;97708.75;;;17.51;82.48
36502;BME280;25393;46.108;3.390;2022-10-15T08:02:01;97694.41;;;17.64;80.89
36502;BME280;25393;46.108;3.390;2022-10-15T08:04:27;97716.78;;;17.76;80.64
36502;BME280;25393;46.108;3.390;2022-10-15T08:06:54;97705.16;;;17.82;79.48
36502;BME280;25393;46.108;3.390;2022-10-15T08:09:21;97690.03;;;17.69;79.35
36502;BME280;25393;46.108;3.390;2022-10-15T08:11:48;97704.94;;;17.65;79.49
36502;BME280;25393;46.108;3.390;2022-10-15T08:14:15;97701.72;;;17.75;79.56
36502;BME280;25393;46.108;3.390;2022-10-15T08:16:42;97726.22;;;17.78;81.34
36502;BME280;25393;46.108;3.390;2022-10-15T08:19:08;97722.56;;;17.91;79.61
36502;BME280;25393;46.108;3.390;2022-10-15T08:21:35;97725.41;;;17.96;79.39
36502;BME280;25393;46.108;3.390;2022-10-15T08:24:02;97726.63;;;18.00;78.80
36502;BME280;25393;46.108;3.390;2022-10-15T08:26:31;97707.56;;;17.90;79.80
36502;BME280;25393;46.108;3.390;2022-10-15T08:28:58;97708.44;;;18.02;78.88
36502;BME280;25393;46.108;3.390;2022-10-15T08:31:24;97715.16;;;18.11;78.21
36502;BME280;25393;46.108;3.390;2022-10-15T08:33:51;97720.59;;;18.05;77.70
36502;BME280;25393;46.108;3.390;2022-10-15T08:36:18;97700.22;;;17.61;79.54
36502;BME280;25393;46.108;3.390;2022-10-15T08:38:44;97706.53;;;17.66;81.51
36502;BME280;25393;46.108;3.390;2022-10-15T08:41:32;97715.72;;;17.95;80.49
36502;BME280;25393;46.108;3.390;2022-10-15T08:44:01;97689.16;;;17.93;79.62
36502;BME280;25393;46.108;3.390;2022-10-15T08:46:34;97718.56;;;18.18;80.38
36502;BME280;25393;46.108;3.390;2022-10-15T08:49:03;97711.84;;;18.27;80.30
36502;BME280;25393;46.108;3.390;2022-10-15T08:51:40;97717.88;;;18.41;79.35
36502;BME280;25393;46.108;3.390;2022-10-15T08:54:14;97722.09;;;18.67;78.31
36502;BME280;25393;46.108;3.390;2022-10-15T08:56:53;97716.09;;;18.83;76.56
36502;BME280;25393;46.108;3.390;2022-10-15T09:02:14;97720.72;;;19.06;76.40
36502;BME280;25393;46.108;3.390;2022-10-15T09:04:52;97721.31;;;19.19;74.89
36502;BME280;25393;46.108;3.390;2022-10-15T09:09:59;97720.19;;;19.38;74.54
36502;BME280;25393;46.108;3.390;2022-10-15T09:15:17;97694.34;;;19.26;74.80
36502;BME280;25393;46.108;3.390;2022-10-15T09:17:51;97722.63;;;19.40;74.94
36502;BME280;25393;46.108;3.390;2022-10-15T09:20:24;97726.00;;;19.35;74.11
36502;BME280;25393;46.108;3.390;2022-10-15T09:22:51;97731.59;;;19.22;75.32
36502;BME280;25393;46.108;3.390;2022-10-15T09:25:21;97717.94;;;19.24;75.04
36502;BME280;25393;46.108;3.390;2022-10-15T09:27:50;97699.50;;;19.27;75.04
36502;BME280;25393;46.108;3.390;2022-10-15T09:30:48;97718.00;;;19.47;74.71
36502;BME280;25393;46.108;3.390;2022-10-15T09:35:53;97720.94;;;19.80;72.83
36502;BME280;25393;46.108;3.390;2022-10-15T09:38:40;97710.13;;;20.15;73.18
36502;BME280;25393;46.108;3.390;2022-10-15T09:41:23;97723.06;;;20.41;69.86
36502;BME280;25393;46.108;3.390;2022-10-15T09:43:51;97721.09;;;20.25;71.08
36502;BME280;25393;46.108;3.390;2022-10-15T09:46:21;97730.09;;;20.42;70.79
36502;BME280;25393;46.108;3.390;2022-10-15T09:52:15;97722.31;;;20.58;70.17
36502;BME280;25393;46.108;3.390;2022-10-15T09:57:30;97720.63;;;20.40;71.03
36502;BME280;25393;46.108;3.390;2022-10-15T10:00:00;97727.97;;;20.44;73.26
36502;BME280;25393;46.108;3.390;2022-10-15T10:02:28;97724.16;;;20.69;71.91
36502;BME280;25393;46.108;3.390;2022-10-15T10:04:55;97712.50;;;20.80;67.76
36502;BME280;25393;46.108;3.390;2022-10-15T10:07:37;97719.69;;;21.19;68.08
36502;BME280;25393;46.108;3.390;2022-10-15T10:10:22;97710.00;;;21.35;66.84
36502;BME280;25393;46.108;3.390;2022-10-15T10:12:50;97727.56;;;21.21;66.02
36502;BME280;25393;46.108;3.390;2022-10-15T10:15:33;97721.84;;;20.61;68.72
36502;BME280;25393;46.108;3.390;2022-10-15T10:18:00;97727.63;;;20.41;69.66
36502;BME280;25393;46.108;3.390;2022-10-15T10:20:28;97726.69;;;20.24;70.69
36502;BME280;25393;46.108;3.390;2022-10-15T10:22:58;97723.34;;;20.28;69.95
36502;BME280;25393;46.108;3.390;2022-10-15T10:33:26;97729.88;;;20.32;69.52
36502;BME280;25393;46.108;3.390;2022-10-15T10:35:54;97703.84;;;19.98;71.21
36502;BME280;25393;46.108;3.390;2022-10-15T10:38:33;97717.38;;;20.26;70.71
36502;BME280;25393;46.108;3.390;2022-10-15T10:41:04;97721.53;;;20.46;70.68
36502;BME280;25393;46.108;3.390;2022-10-15T10:43:34;97731.22;;;20.58;69.89
36502;BME280;25393;46.108;3.390;2022-10-15T10:48:42;97723.88;;;20.99;68.37
36502;BME280;25393;46.108;3.390;2022-10-15T10:56:18;97725.41;;;21.39;63.73
36502;BME280;25393;46.108;3.390;2022-10-15T10:58:48;97703.13;;;21.27;62.55
36502;BME280;25393;46.108;3.390;2022-10-15T11:01:18;97703.00;;;21.72;62.32
36502;BME280;25393;46.108;3.390;2022-10-15T11:03:45;97708.63;;;22.04;62.00
36502;BME280;25393;46.108;3.390;2022-10-15T11:14:31;97708.44;;;22.32;58.56
36502;BME280;25393;46.108;3.390;2022-10-15T11:25:43;97714.44;;;23.73;57.06
36502;BME280;25393;46.108;3.390;2022-10-15T11:28:39;97698.28;;;24.35;53.39
36502;BME280;25393;46.108;3.390;2022-10-15T11:31:27;97694.09;;;24.75;52.07
36502;BME280;25393;46.108;3.390;2022-10-15T11:34:26;97695.28;;;25.29;52.67
36502;BME280;25393;46.108;3.390;2022-10-15T11:42:25;97683.66;;;24.31;52.48
36502;BME280;25393;46.108;3.390;2022-10-15T11:45:08;97696.78;;;23.61;53.76
36502;BME280;25393;46.108;3.390;2022-10-15T11:50:43;97687.50;;;23.52;56.96
36502;BME280;25393;46.108;3.390;2022-10-15T11:56:17;97679.88;;;22.36;58.91
36502;BME280;25393;46.108;3.390;2022-10-15T12:01:52;97665.41;;;23.60;55.62
36502;BME280;25393;46.108;3.390;2022-10-15T12:07:00;97658.50;;;23.89;52.60
36502;BME280;25393;46.108;3.390;2022-10-15T12:09:33;97636.38;;;23.45;52.31
36502;BME280;25393;46.108;3.390;2022-10-15T12:14:51;97658.78;;;22.82;55.12
36502;BME280;25393;46.108;3.390;2022-10-15T12:17:29;97654.81;;;22.89;56.31
36502;BME280;25393;46.108;3.390;2022-10-15T12:20:12;97648.00;;;22.87;54.51
36502;BME280;25393;46.108;3.390;2022-10-15T12:22:54;97644.31;;;22.93;56.99
36502;BME280;25393;46.108;3.390;2022-10-15T12:25:39;97645.66;;;23.27;58.06
36502;BME280;25393;46.108;3.390;2022-10-15T12:28:28;97646.56;;;23.75;60.08
36502;BME280;25393;46.108;3.390;2022-10-15T12:31:03;97638.81;;;24.71;54.78
36502;BME280;25393;46.108;3.390;2022-10-15T12:33:35;97639.63;;;24.71;54.03
36502;BME280;25393;46.108;3.390;2022-10-15T12:36:22;97645.63;;;24.06;52.05
36502;BME280;25393;46.108;3.390;2022-10-15T12:39:03;97655.56;;;23.91;55.85
36502;BME280;25393;46.108;3.390;2022-10-15T12:41:47;97652.34;;;24.56;54.42
36502;BME280;25393;46.108;3.390;2022-10-15T12:44:23;97640.59;;;24.35;53.68
36502;BME280;25393;46.108;3.390;2022-10-15T12:46:57;97634.97;;;24.42;55.13
36502;BME280;25393;46.108;3.390;2022-10-15T12:51:59;97633.56;;;24.24;55.39
36502;BME280;25393;46.108;3.390;2022-10-15T12:54:43;97646.59;;;24.42;52.74
36502;BME280;25393;46.108;3.390;2022-10-15T13:00:38;97641.84;;;23.55;57.36
36502;BME280;25393;46.108;3.390;2022-10-15T13:03:21;97639.63;;;23.15;57.00
36502;BME280;25393;46.108;3.390;2022-10-15T13:05:50;97632.25;;;23.06;55.70
36502;BME280;25393;46.108;3.390;2022-10-15T13:08:23;97624.81;;;22.91;55.64
36502;BME280;25393;46.108;3.390;2022-10-15T13:10:54;97636.72;;;22.90;57.06
36502;BME280;25393;46.108;3.390;2022-10-15T13:13:28;97634.56;;;22.92;57.80
36502;BME280;25393;46.108;3.390;2022-10-15T13:15:59;97643.50;;;22.93;57.14
36502;BME280;25393;46.108;3.390;2022-10-15T13:18:28;97623.63;;;23.09;58.06
36502;BME280;25393;46.108;3.390;2022-10-15T13:20:57;97613.91;;;23.13;55.81
36502;BME280;25393;46.108;3.390;2022-10-15T13:23:29;97616.09;;;23.16;56.58
36502;BME280;25393;46.108;3.390;2022-10-15T13:28:42;97608.22;;;22.51;58.02
36502;BME280;25393;46.108;3.390;2022-10-15T13:31:17;97621.69;;;22.72;58.79
36502;BME280;25393;46.108;3.390;2022-10-15T13:33:47;97609.50;;;22.43;58.15
36502;BME280;25393;46.108;3.390;2022-10-15T13:36:35;97628.03;;;22.88;58.02
36502;BME280;25393;46.108;3.390;2022-10-15T13:42:23;97614.59;;;23.30;55.90
36502;BME280;25393;46.108;3.390;2022-10-15T13:45:02;97602.94;;;23.24;56.18
36502;BME280;25393;46.108;3.390;2022-10-15T13:47:33;97596.53;;;23.35;54.88
36502;BME280;25393;46.108;3.390;2022-10-15T13:50:26;97593.91;;;23.46;55.38
36502;BME280;25393;46.108;3.390;2022-10-15T13:55:31;97617.38;;;23.87;54.90
36502;BME280;25393;46.108;3.390;2022-10-15T13:58:05;97606.47;;;23.72;54.76
36502;BME280;25393;46.108;3.390;2022-10-15T14:00:41;97589.44;;;23.66;55.51
36502;BME280;25393;46.108;3.390;2022-10-15T14:03:24;97600.06;;;23.83;54.82
36502;BME280;25393;46.108;3.390;2022-10-15T14:05:53;97603.63;;;23.88;54.89
36502;BME280;25393;46.108;3.390;2022-10-15T14:08:21;97597.94;;;24.00;53.35
36502;BME280;25393;46.108;3.390;2022-10-15T14:10:50;97590.03;;;23.78;53.94
36502;BME280;25393;46.108;3.390;2022-10-15T14:13:17;97594.63;;;23.78;54.87
36502;BME280;25393;46.108;3.390;2022-10-15T14:18:35;97598.59;;;23.60;56.24
36502;BME280;25393;46.108;3.390;2022-10-15T14:21:12;97575.50;;;23.43;56.29
36502;BME280;25393;46.108;3.390;2022-10-15T14:23:40;97582.53;;;23.44;56.15
36502;BME280;25393;46.108;3.390;2022-10-15T14:26:08;97584.16;;;23.45;56.19
36502;BME280;25393;46.108;3.390;2022-10-15T14:28:37;97577.13;;;23.44;53.43
36502;BME280;25393;46.108;3.390;2022-10-15T14:31:05;97576.06;;;23.45;53.60
36502;BME280;25393;46.108;3.390;2022-10-15T14:36:11;97569.09;;;23.17;55.27
36502;BME280;25393;46.108;3.390;2022-10-15T14:38:39;97567.63;;;22.99;55.81
36502;BME280;25393;46.108;3.390;2022-10-15T14:44:02;97559.59;;;22.77;56.77
36502;BME280;25393;46.108;3.390;2022-10-15T14:46:43;97549.00;;;22.71;57.66
36502;BME280;25393;46.108;3.390;2022-10-15T14:49:16;97560.53;;;22.61;58.93
36502;BME280;25393;46.108;3.390;2022-10-15T14:51:43;97564.44;;;22.49;59.41
36502;BME280;25393;46.108;3.390;2022-10-15T14:54:20;97553.00;;;22.36;60.31
36502;BME280;25393;46.108;3.390;2022-10-15T14:56:49;97551.38;;;22.62;57.53
36502;BME280;25393;46.108;3.390;2022-10-15T14:59:21;97557.97;;;22.50;59.74
36502;BME280;25393;46.108;3.390;2022-10-15T15:01:57;97556.75;;;22.35;60.16
36502;BME280;25393;46.108;3.390;2022-10-15T15:04:37;97568.50;;;22.19;60.81
36502;BME280;25393;46.108;3.390;2022-10-15T15:07:18;97569.78;;;22.17;63.51
36502;BME280;25393;46.108;3.390;2022-10-15T15:09:46;97562.69;;;22.06;65.77